createdAt,value
2023-12-20T00:01:23.869Z,21.87
2023-12-20T00:03:53.267Z,19.63
2023-12-20T00:06:21.304Z,19.57
2023-12-20T00:08:49.241Z,21.17
2023-12-20T00:11:17.151Z,19.87
2023-12-20T00:13:47.219Z,21.50
2023-12-20T00:16:15.889Z,19.83
2023-12-20T00:18:43.923Z,19.13
2023-12-20T00:21:13.475Z,17.83
2023-12-20T00:23:41.542Z,20.97
2023-12-20T00:26:09.497Z,20.43
2023-12-20T00:28:37.467Z,19.67
2023-12-20T00:31:05.942Z,19.33
2023-12-20T00:33:34.099Z,19.87
2023-12-20T00:36:02.175Z,20.20
2023-12-20T00:38:31.445Z,20.87
2023-12-20T00:40:59.477Z,19.50
2023-12-20T00:43:27.971Z,18.40
2023-12-20T00:45:56.692Z,18.80
2023-12-20T00:48:24.700Z,19.87
2023-12-20T00:50:52.673Z,19.37
2023-12-20T00:53:20.652Z,19.50
2023-12-20T00:55:51.400Z,18.37
2023-12-20T00:58:19.380Z,19.67
2023-12-20T01:00:47.963Z,19.37
2023-12-20T01:03:16.586Z,19.87
2023-12-20T01:05:44.702Z,19.63
2023-12-20T01:08:12.668Z,19.47
2023-12-20T01:10:41.569Z,20.33
2023-12-20T01:13:11.244Z,19.27
2023-12-20T01:15:39.280Z,19.10
2023-12-20T01:18:07.428Z,18.60
2023-12-20T01:20:35.347Z,19.13
2023-12-20T01:23:03.304Z,20.03
2023-12-20T01:25:31.309Z,20.03
2023-12-20T01:27:59.308Z,18.90
2023-12-20T01:30:28.667Z,21.40
2023-12-20T01:32:56.784Z,16.93
2023-12-20T01:35:24.855Z,17.70
2023-12-20T01:37:52.812Z,18.50
2023-12-20T01:40:21.994Z,16.97
2023-12-20T01:42:49.936Z,16.50
2023-12-20T01:45:17.856Z,16.33
2023-12-20T01:47:47.522Z,17.03
2023-12-20T01:50:15.624Z,15.50
2023-12-20T01:52:45.143Z,16.23
2023-12-20T01:55:15.869Z,15.90
2023-12-20T01:57:45.420Z,14.87
2023-12-20T02:00:15.677Z,15.67
2023-12-20T02:02:44.016Z,15.47
2023-12-20T02:05:13.652Z,14.80
2023-12-20T02:07:41.760Z,15.40
2023-12-20T02:10:10.608Z,15.37
2023-12-20T02:12:38.581Z,13.40
2023-12-20T02:15:07.481Z,13.30
2023-12-20T02:17:36.521Z,13.60
2023-12-20T02:20:04.835Z,13.37
2023-12-20T02:22:33.491Z,13.83
2023-12-20T02:25:01.599Z,13.77
2023-12-20T02:27:31.169Z,14.20
2023-12-20T02:29:59.218Z,13.63
2023-12-20T02:32:28.400Z,13.00
2023-12-20T02:34:57.820Z,13.07
2023-12-20T02:37:25.917Z,13.53
2023-12-20T02:39:55.245Z,14.27
2023-12-20T02:42:23.157Z,13.90
2023-12-20T02:44:51.224Z,11.20
2023-12-20T02:47:19.249Z,14.33
2023-12-20T02:49:47.324Z,13.97
2023-12-20T02:52:15.544Z,14.77
2023-12-20T02:54:43.613Z,13.37
2023-12-20T02:57:12.857Z,13.67
2023-12-20T02:59:40.947Z,12.93
2023-12-20T03:02:08.964Z,13.73
2023-12-20T03:04:37.056Z,13.60
2023-12-20T03:07:05.108Z,13.07
2023-12-20T03:09:47.608Z,13.67
2023-12-20T03:12:22.714Z,14.10
2023-12-20T03:14:51.006Z,13.57
2023-12-20T03:17:18.900Z,13.33
2023-12-20T03:19:46.887Z,13.57
2023-12-20T03:22:14.984Z,12.83
2023-12-20T03:24:42.969Z,13.83
2023-12-20T03:27:10.998Z,12.53
2023-12-20T03:29:40.356Z,13.57
2023-12-20T03:32:09.888Z,14.10
2023-12-20T03:34:37.977Z,13.90
2023-12-20T03:37:06.090Z,14.77
2023-12-20T03:39:34.032Z,13.43
2023-12-20T03:42:01.959Z,13.13
2023-12-20T03:44:29.950Z,13.20
2023-12-20T03:46:59.263Z,12.97
2023-12-20T03:49:27.498Z,13.90
2023-12-20T03:51:55.546Z,13.13
2023-12-20T03:54:23.565Z,12.43
2023-12-20T03:56:51.598Z,12.73
2023-12-20T03:59:21.028Z,13.90
2023-12-20T04:01:49.163Z,13.53
2023-12-20T04:04:18.748Z,14.77
2023-12-20T04:06:46.972Z,14.97
2023-12-20T04:09:15.196Z,15.33
2023-12-20T04:11:43.163Z,16.93
2023-12-20T04:14:11.358Z,15.00
2023-12-20T04:16:40.274Z,15.00
2023-12-20T04:19:08.364Z,16.47
2023-12-20T04:21:37.689Z,16.43
2023-12-20T04:24:05.827Z,15.57
2023-12-20T04:26:33.871Z,18.00
2023-12-20T04:29:01.856Z,16.70
2023-12-20T04:31:29.869Z,17.23
2023-12-20T04:33:57.884Z,19.57
2023-12-20T04:36:27.977Z,18.23
2023-12-20T04:38:57.371Z,17.57
2023-12-20T04:41:25.338Z,18.23
2023-12-20T04:43:53.283Z,17.33
2023-12-20T04:46:21.364Z,17.40
2023-12-20T04:48:49.447Z,18.60
2023-12-20T04:51:17.884Z,18.60
2023-12-20T04:53:45.788Z,18.30
2023-12-20T04:56:15.014Z,20.20
2023-12-20T04:58:43.078Z,19.77
2023-12-20T05:01:11.554Z,19.00
2023-12-20T05:03:39.531Z,19.40
2023-12-20T05:06:07.658Z,19.10
2023-12-20T05:08:35.685Z,18.97
2023-12-20T05:11:04.278Z,20.20
2023-12-20T05:13:38.382Z,20.57
2023-12-20T05:16:15.216Z,19.90
2023-12-20T05:18:43.268Z,20.90
2023-12-20T05:21:11.605Z,21.13
2023-12-20T05:23:39.476Z,24.50
2023-12-20T05:26:07.676Z,23.47
2023-12-20T05:28:37.706Z,28.73
2023-12-20T05:31:06.063Z,27.60
2023-12-20T05:33:34.213Z,28.80
2023-12-20T05:36:02.441Z,28.53
2023-12-20T05:38:30.519Z,30.43
2023-12-20T05:40:59.138Z,30.93
2023-12-20T05:43:27.286Z,29.20
2023-12-20T05:46:11.866Z,31.63
2023-12-20T05:48:41.112Z,29.43
2023-12-20T05:51:10.663Z,28.00
2023-12-20T05:54:08.030Z,30.53
2023-12-20T05:56:36.603Z,27.87
2023-12-20T05:59:04.653Z,30.57
2023-12-20T06:01:34.496Z,31.27
2023-12-20T06:04:02.843Z,31.23
2023-12-20T06:06:31.808Z,33.03
2023-12-20T06:08:59.943Z,30.27
2023-12-20T06:11:48.155Z,31.30
2023-12-20T06:14:19.952Z,33.60
2023-12-20T06:16:53.413Z,33.63
2023-12-20T06:19:24.109Z,33.27
2023-12-20T06:21:57.365Z,33.23
2023-12-20T06:24:29.029Z,36.63
2023-12-20T06:26:57.224Z,35.83
2023-12-20T06:29:26.683Z,31.70
2023-12-20T06:31:56.016Z,32.50
2023-12-20T06:34:31.030Z,35.57
2023-12-20T06:36:58.417Z,32.37
2023-12-20T06:39:26.926Z,34.70
2023-12-20T06:41:56.125Z,35.27
2023-12-20T06:44:25.294Z,34.63
2023-12-20T06:47:03.075Z,25.60
2023-12-20T06:49:41.176Z,26.73
2023-12-20T06:52:24.756Z,26.90
2023-12-20T06:54:56.055Z,28.97
2023-12-20T06:57:38.237Z,23.33
2023-12-20T07:00:12.960Z,19.97
2023-12-20T07:02:49.832Z,24.70
2023-12-20T07:05:38.197Z,20.70
2023-12-20T07:09:34.564Z,19.17
2023-12-20T07:13:13.011Z,17.73
2023-12-20T07:15:49.618Z,22.20
2023-12-20T07:18:19.897Z,27.03
2023-12-20T07:20:48.492Z,21.10
2023-12-20T07:23:16.731Z,21.83
2023-12-20T07:25:45.353Z,31.87
2023-12-20T07:28:13.934Z,20.33
2023-12-20T07:30:42.566Z,34.87
2023-12-20T07:33:11.629Z,28.77
2023-12-20T07:35:41.384Z,20.40
2023-12-20T07:38:09.600Z,20.37
2023-12-20T07:40:40.770Z,18.20
2023-12-20T07:43:10.584Z,22.60
2023-12-20T07:45:39.270Z,23.40
2023-12-20T07:48:09.445Z,25.30
2023-12-20T07:50:37.689Z,25.17
2023-12-20T07:53:07.806Z,25.13
2023-12-20T07:55:36.380Z,27.90
2023-12-20T07:58:06.264Z,25.97
2023-12-20T08:00:34.315Z,25.30
2023-12-20T08:03:04.690Z,24.10
2023-12-20T08:05:32.917Z,20.37
2023-12-20T08:08:01.090Z,18.80
2023-12-20T08:10:31.420Z,19.07
2023-12-20T08:12:59.581Z,19.83
2023-12-20T08:15:27.716Z,17.27
2023-12-20T08:17:56.033Z,17.40
2023-12-20T08:20:30.410Z,17.50
2023-12-20T08:23:05.750Z,17.17
2023-12-20T08:25:35.719Z,18.00
2023-12-20T08:28:05.858Z,18.87
2023-12-20T08:30:34.436Z,20.10
2023-12-20T08:33:03.937Z,18.77
2023-12-20T08:35:32.344Z,19.97
2023-12-20T08:38:00.816Z,24.67
2023-12-20T08:40:29.342Z,29.10
2023-12-20T08:42:58.953Z,16.57
2023-12-20T08:45:27.153Z,16.03
2023-12-20T08:47:58.171Z,16.27
2023-12-20T08:50:26.628Z,16.77
2023-12-20T08:52:54.850Z,16.13
2023-12-20T08:55:23.068Z,17.20
2023-12-20T08:57:52.037Z,20.40
2023-12-20T09:00:25.478Z,15.17
2023-12-20T09:02:53.675Z,14.97
2023-12-20T09:05:21.817Z,27.20
2023-12-20T09:07:50.571Z,17.07
2023-12-20T09:10:23.635Z,13.60
2023-12-20T09:12:52.595Z,13.87
2023-12-20T09:15:22.122Z,14.83
2023-12-20T09:17:50.570Z,14.53
2023-12-20T09:20:19.404Z,22.37
2023-12-20T09:22:49.869Z,16.43
2023-12-20T09:25:19.000Z,13.43
2023-12-20T09:27:48.261Z,14.80
2023-12-20T09:30:26.115Z,15.23
2023-12-20T09:32:57.479Z,14.17
2023-12-20T09:35:27.580Z,13.93
2023-12-20T09:37:56.073Z,15.83
2023-12-20T09:40:28.281Z,14.53
2023-12-20T09:43:00.220Z,14.53
2023-12-20T09:45:28.896Z,15.00
2023-12-20T09:48:02.266Z,14.77
2023-12-20T09:50:31.885Z,16.03
2023-12-20T09:53:04.226Z,14.73
2023-12-20T09:55:35.001Z,13.43
2023-12-20T09:58:04.145Z,19.10
2023-12-20T10:00:36.288Z,12.40
2023-12-20T10:03:08.327Z,14.37
2023-12-20T10:05:37.549Z,16.37
2023-12-20T10:08:06.484Z,16.03
2023-12-20T10:10:41.970Z,13.60
2023-12-20T10:13:15.064Z,13.10
2023-12-20T10:15:43.868Z,14.77
2023-12-20T10:18:15.485Z,14.37
2023-12-20T10:20:56.776Z,15.20
2023-12-20T10:23:25.247Z,11.83
2023-12-20T10:26:52.737Z,11.77
2023-12-20T10:29:22.764Z,12.10
2023-12-20T10:31:51.629Z,11.27
2023-12-20T10:34:21.257Z,10.73
2023-12-20T10:36:49.805Z,12.90
2023-12-20T10:39:19.369Z,12.23
2023-12-20T10:41:49.973Z,12.80
2023-12-20T10:44:18.345Z,23.50
2023-12-20T10:46:52.704Z,13.87
2023-12-20T10:49:25.486Z,11.50
2023-12-20T10:52:01.330Z,12.87
2023-12-20T10:54:32.296Z,12.40
2023-12-20T10:57:02.564Z,13.87
2023-12-20T10:59:37.397Z,13.33
2023-12-20T11:02:07.241Z,14.30
2023-12-20T11:04:46.811Z,13.63
2023-12-20T11:07:24.280Z,14.63
2023-12-20T11:10:13.611Z,15.20
2023-12-20T11:12:49.757Z,12.93
2023-12-20T11:15:18.735Z,13.47
2023-12-20T11:17:51.721Z,12.13
2023-12-20T11:20:25.392Z,15.77
2023-12-20T11:22:57.501Z,14.90
2023-12-20T11:25:27.793Z,15.03
2023-12-20T11:28:13.004Z,14.03
2023-12-20T11:30:48.255Z,14.10
2023-12-20T11:33:17.061Z,12.87
2023-12-20T11:35:48.107Z,13.00
2023-12-20T11:38:16.985Z,15.23
2023-12-20T11:40:46.364Z,16.33
2023-12-20T11:43:14.430Z,15.97
2023-12-20T11:45:53.007Z,16.13
2023-12-20T11:48:21.706Z,14.37
2023-12-20T11:50:51.085Z,16.07
2023-12-20T11:53:20.698Z,14.07
2023-12-20T11:55:50.188Z,14.17
2023-12-20T11:58:18.999Z,16.50
2023-12-20T12:00:47.843Z,17.43
2023-12-20T12:03:18.716Z,17.83
2023-12-20T12:05:52.887Z,16.47
2023-12-20T12:08:23.063Z,18.73
2023-12-20T12:10:53.456Z,15.37
2023-12-20T12:13:22.735Z,18.33
2023-12-20T12:15:52.592Z,18.03
2023-12-20T12:18:21.925Z,18.30
2023-12-20T12:20:52.445Z,26.50
2023-12-20T12:23:26.337Z,23.13
2023-12-20T12:25:56.664Z,22.30
2023-12-20T12:28:29.674Z,22.23
2023-12-20T12:31:03.153Z,24.97
2023-12-20T12:33:33.273Z,23.27
2023-12-20T12:36:07.187Z,22.83
2023-12-20T12:38:37.769Z,25.83
2023-12-20T12:41:09.040Z,26.77
2023-12-20T12:43:38.621Z,27.33
2023-12-20T12:46:08.742Z,32.27
2023-12-20T12:48:38.296Z,31.37
2023-12-20T12:51:15.341Z,28.57
2023-12-20T12:53:45.034Z,26.87
2023-12-20T12:56:16.933Z,29.03
2023-12-20T12:58:46.506Z,26.53
2023-12-20T13:01:16.730Z,27.47
2023-12-20T13:03:47.211Z,24.80
2023-12-20T13:06:16.616Z,22.97
2023-12-20T13:08:45.688Z,22.27
2023-12-20T13:11:14.205Z,21.63
2023-12-20T13:13:42.243Z,22.20
2023-12-20T13:16:10.458Z,20.73
2023-12-20T13:18:38.867Z,23.03
2023-12-20T13:21:08.243Z,30.07
2023-12-20T13:23:40.956Z,29.90
2023-12-20T13:26:09.847Z,25.60
2023-12-20T13:28:37.991Z,23.00
2023-12-20T13:31:06.355Z,21.43
2023-12-20T13:33:34.505Z,21.07
2023-12-20T13:36:05.979Z,23.80
2023-12-20T13:38:37.259Z,28.43
2023-12-20T13:41:05.937Z,20.63
2023-12-20T13:43:34.170Z,20.73
2023-12-20T13:46:02.712Z,21.63
2023-12-20T13:48:30.819Z,21.50
2023-12-20T13:50:59.828Z,19.17
2023-12-20T13:53:27.852Z,20.30
2023-12-20T13:55:57.347Z,18.37
2023-12-20T13:58:25.432Z,21.97
2023-12-20T14:00:54.155Z,20.83
2023-12-20T14:03:22.440Z,19.30
2023-12-20T14:05:51.194Z,18.87
2023-12-20T14:08:20.034Z,28.60
2023-12-20T14:10:48.169Z,21.70
2023-12-20T14:13:17.783Z,22.50
2023-12-20T14:15:49.107Z,23.77
2023-12-20T14:18:18.322Z,20.30
2023-12-20T14:20:48.978Z,22.17
2023-12-20T14:23:17.073Z,19.23
2023-12-20T14:25:59.462Z,18.93
2023-12-20T14:28:30.094Z,20.37
2023-12-20T14:30:59.041Z,18.67
2023-12-20T14:33:28.003Z,21.60
2023-12-20T14:35:57.438Z,18.90
2023-12-20T14:38:26.834Z,17.97
2023-12-20T14:40:56.101Z,18.73
2023-12-20T14:43:25.645Z,19.90
2023-12-20T14:45:55.922Z,20.00
2023-12-20T14:48:24.316Z,24.23
2023-12-20T14:50:53.788Z,21.77
2023-12-20T14:53:23.520Z,22.50
2023-12-20T14:55:52.423Z,23.60
2023-12-20T14:58:20.512Z,21.30
2023-12-20T15:00:58.825Z,21.00
2023-12-20T15:03:28.310Z,19.90
2023-12-20T15:05:59.803Z,20.23
2023-12-20T15:08:27.950Z,24.00
2023-12-20T15:10:56.020Z,22.90
2023-12-20T15:13:24.039Z,25.13
2023-12-20T15:15:52.292Z,24.73
2023-12-20T15:18:20.431Z,26.43
2023-12-20T15:20:50.533Z,21.70
2023-12-20T15:23:18.707Z,20.47
2023-12-20T15:25:47.557Z,22.10
2023-12-20T15:28:15.621Z,21.17
2023-12-20T15:30:43.666Z,22.80
2023-12-20T15:33:11.776Z,26.37
2023-12-20T15:35:40.408Z,27.77
2023-12-20T15:38:09.871Z,27.57
2023-12-20T15:40:38.495Z,21.30
2023-12-20T15:43:06.812Z,21.90
2023-12-20T15:45:34.906Z,24.20
2023-12-20T15:48:05.379Z,24.87
2023-12-20T15:50:35.240Z,24.17
2023-12-20T15:53:04.714Z,25.70
2023-12-20T15:55:35.426Z,29.30
2023-12-20T15:58:04.475Z,25.63
2023-12-20T16:00:32.674Z,28.57
2023-12-20T16:03:00.755Z,23.63
2023-12-20T16:05:29.377Z,25.10
2023-12-20T16:07:57.323Z,22.67
2023-12-20T16:10:25.481Z,30.47
2023-12-20T16:12:54.986Z,30.67
2023-12-20T16:15:23.471Z,27.87
2023-12-20T16:17:51.883Z,35.87
2023-12-20T16:20:20.534Z,25.97
2023-12-20T16:22:48.592Z,28.13
2023-12-20T16:25:16.779Z,27.83
2023-12-20T16:27:47.677Z,32.40
2023-12-20T16:30:18.050Z,28.97
2023-12-20T16:32:46.275Z,29.20
2023-12-20T16:35:14.700Z,29.13
2023-12-20T16:37:43.248Z,36.83
2023-12-20T16:40:13.858Z,42.77
2023-12-20T16:42:42.057Z,41.30
2023-12-20T16:45:10.914Z,47.47
2023-12-20T16:47:40.795Z,45.87
2023-12-20T16:50:10.583Z,44.97
2023-12-20T16:52:39.163Z,40.67
2023-12-20T16:55:10.730Z,43.37
2023-12-20T16:57:39.113Z,33.27
2023-12-20T17:00:08.700Z,28.50
2023-12-20T17:02:37.483Z,36.23
2023-12-20T17:05:07.582Z,26.90
2023-12-20T17:07:35.687Z,31.50
2023-12-20T17:10:04.271Z,29.27
2023-12-20T17:12:32.344Z,29.73
2023-12-20T17:15:02.156Z,28.30
2023-12-20T17:17:30.423Z,30.13
2023-12-20T17:19:58.530Z,31.80
2023-12-20T17:22:28.142Z,35.77
2023-12-20T17:24:56.336Z,35.77
2023-12-20T17:27:24.328Z,48.50
2023-12-20T17:29:52.527Z,52.63
2023-12-20T17:32:20.746Z,61.67
2023-12-20T17:34:48.855Z,54.47
2023-12-20T17:37:17.104Z,51.23
2023-12-20T17:39:46.624Z,49.27
2023-12-20T17:42:15.231Z,52.57
2023-12-20T17:44:43.521Z,56.67
2023-12-20T17:47:12.163Z,62.13
2023-12-20T17:49:40.285Z,59.10
2023-12-20T17:52:09.270Z,57.90
2023-12-20T17:54:37.580Z,54.43
2023-12-20T17:57:07.325Z,44.27
2023-12-20T17:59:35.399Z,36.40
2023-12-20T18:02:04.897Z,36.37
2023-12-20T18:04:33.189Z,37.93
2023-12-20T18:07:01.648Z,37.63
2023-12-20T18:09:30.311Z,38.53
2023-12-20T18:12:00.135Z,39.60
2023-12-20T18:14:31.268Z,39.87
2023-12-20T18:16:59.376Z,46.23
2023-12-20T18:19:27.586Z,54.67
2023-12-20T18:21:55.722Z,53.60
2023-12-20T18:24:24.360Z,54.90
2023-12-20T18:26:52.550Z,53.47
2023-12-20T18:29:20.874Z,70.40
2023-12-20T18:31:51.606Z,64.97
2023-12-20T18:34:20.181Z,67.07
2023-12-20T18:36:49.367Z,70.93
2023-12-20T18:39:18.395Z,66.47
2023-12-20T18:41:49.385Z,68.73
2023-12-20T18:44:17.868Z,63.47
2023-12-20T18:46:47.032Z,65.03
2023-12-20T18:49:16.774Z,68.23
2023-12-20T18:51:45.370Z,65.67
2023-12-20T18:54:13.370Z,64.50
2023-12-20T18:56:43.665Z,69.57
2023-12-20T18:59:12.332Z,70.07
2023-12-20T19:01:40.518Z,71.03
2023-12-20T19:04:08.736Z,88.37
2023-12-20T19:06:38.558Z,78.83
2023-12-20T19:09:06.625Z,84.23
2023-12-20T19:11:34.922Z,83.77
2023-12-20T19:14:03.755Z,81.10
2023-12-20T19:16:32.083Z,83.10
2023-12-20T19:19:00.280Z,84.23
2023-12-20T19:21:28.284Z,82.33
2023-12-20T19:23:57.761Z,81.20
2023-12-20T19:26:25.791Z,74.20
2023-12-20T19:28:55.582Z,63.63
2023-12-20T19:31:23.824Z,63.23
2023-12-20T19:33:54.487Z,67.27
2023-12-20T19:36:22.570Z,59.17
2023-12-20T19:38:50.601Z,56.77
2023-12-20T19:41:20.013Z,53.57
2023-12-20T19:43:48.856Z,52.67
2023-12-20T19:46:17.056Z,47.50
2023-12-20T19:48:46.605Z,50.60
2023-12-20T19:51:16.115Z,63.63
2023-12-20T19:53:44.575Z,64.17
2023-12-20T19:56:12.646Z,63.80
2023-12-20T19:58:41.951Z,59.40
2023-12-20T20:01:10.123Z,61.53
2023-12-20T20:03:38.387Z,64.33
2023-12-20T20:06:07.484Z,56.70
2023-12-20T20:08:35.624Z,58.07
2023-12-20T20:11:03.913Z,57.47
2023-12-20T20:13:32.305Z,54.73
2023-12-20T20:16:02.226Z,54.83
2023-12-20T20:18:30.386Z,52.70
2023-12-20T20:20:58.744Z,56.87
2023-12-20T20:23:27.611Z,51.83
2023-12-20T20:25:57.518Z,52.17
2023-12-20T20:28:29.555Z,47.63
2023-12-20T20:30:58.652Z,46.20
2023-12-20T20:33:29.165Z,47.13
2023-12-20T20:35:59.967Z,47.80
2023-12-20T20:38:29.678Z,42.90
2023-12-20T20:40:59.581Z,37.03
2023-12-20T20:43:27.835Z,39.70
2023-12-20T20:45:56.099Z,40.37
2023-12-20T20:48:28.226Z,36.40
2023-12-20T20:51:03.513Z,39.60
2023-12-20T20:53:31.996Z,40.00
2023-12-20T20:56:00.403Z,36.27
2023-12-20T20:58:28.695Z,37.80
2023-12-20T21:00:57.798Z,42.37
2023-12-20T21:03:28.302Z,40.80
2023-12-20T21:05:56.723Z,41.73
2023-12-20T21:08:26.147Z,41.20
2023-12-20T21:10:59.435Z,42.57
2023-12-20T21:13:28.105Z,41.93
2023-12-20T21:15:56.419Z,41.60
2023-12-20T21:18:24.558Z,43.87
2023-12-20T21:20:52.502Z,38.90
2023-12-20T21:23:20.520Z,38.57
2023-12-20T21:25:49.950Z,39.20
2023-12-20T21:28:18.093Z,35.33
2023-12-20T21:30:46.218Z,33.10
2023-12-20T21:33:14.596Z,33.63
2023-12-20T21:35:42.572Z,36.13
2023-12-20T21:38:11.746Z,34.07
2023-12-20T21:40:39.783Z,29.93
2023-12-20T21:43:09.340Z,30.17
2023-12-20T21:45:37.796Z,29.40
2023-12-20T21:48:06.549Z,30.00
2023-12-20T21:50:34.657Z,28.13
2023-12-20T21:53:02.738Z,28.13
2023-12-20T21:55:30.818Z,29.30
2023-12-20T21:57:58.860Z,29.37
2023-12-20T22:00:28.277Z,29.73
2023-12-20T22:02:59.072Z,31.73
2023-12-20T22:05:27.448Z,32.53
2023-12-20T22:07:55.497Z,33.73
2023-12-20T22:10:23.514Z,34.60
2023-12-20T22:12:51.816Z,32.63
2023-12-20T22:15:20.216Z,31.40
2023-12-20T22:17:50.039Z,33.57
2023-12-20T22:20:18.936Z,34.77
2023-12-20T22:22:47.442Z,30.93
2023-12-20T22:25:15.686Z,31.10
2023-12-20T22:27:44.239Z,34.50
2023-12-20T22:30:13.282Z,31.90
2023-12-20T22:32:41.547Z,31.80
2023-12-20T22:35:13.373Z,31.50
2023-12-20T22:37:43.123Z,31.17
2023-12-20T22:40:12.401Z,30.43
2023-12-20T22:42:41.166Z,30.43
2023-12-20T22:45:10.315Z,30.17
2023-12-20T22:47:38.414Z,30.20
2023-12-20T22:50:07.462Z,32.13
2023-12-20T22:52:37.167Z,31.77
2023-12-20T22:55:05.870Z,33.17
2023-12-20T22:57:33.983Z,32.50
2023-12-20T23:00:03.055Z,30.63
2023-12-20T23:02:31.598Z,31.97
2023-12-20T23:04:59.819Z,31.47
2023-12-20T23:07:28.121Z,30.80
2023-12-20T23:09:59.087Z,31.47
2023-12-20T23:12:27.327Z,30.03
2023-12-20T23:14:55.384Z,28.70
2023-12-20T23:17:23.662Z,30.70
2023-12-20T23:19:51.943Z,30.40
2023-12-20T23:22:20.015Z,27.43
2023-12-20T23:24:48.237Z,27.67
2023-12-20T23:27:17.670Z,26.17
2023-12-20T23:29:45.726Z,26.33
2023-12-20T23:32:13.904Z,25.27
2023-12-20T23:34:42.114Z,25.17
2023-12-20T23:37:12.625Z,21.43
2023-12-20T23:39:40.693Z,22.67
2023-12-20T23:42:09.894Z,23.33
2023-12-20T23:44:39.238Z,24.13
2023-12-20T23:47:07.508Z,23.47
2023-12-20T23:49:35.655Z,23.97
2023-12-20T23:52:04.167Z,23.07
2023-12-20T23:54:32.239Z,22.33
2023-12-20T23:57:00.279Z,24.53
2023-12-20T23:59:28.249Z,22.80
